Time;durP1;ratioP1;P1;durP2;ratioP2;P2;SDS_P1;SDS_P2;PMS_P1;PMS_P2;Temp;Humidity;BMP_temperature;BMP_pressure;BME280_temperature;BME280_humidity;BME280_pressure;Samples;Min_cycle;Max_cycle;Signal;HPM_P1;HPM_P2
2023/09/04 00:01:23;;;;;;;19.10;12.55;;;;;;;13.90;87.51;99592.59;4860006;29;20465;-58
2023/09/04 00:03:48;;;;;;;16.65;11.48;;;;;;;13.88;87.77;99584.03;4860579;29;20496;-60
2023/09/04 00:06:14;;;;;;;15.82;12.52;;;;;;;13.83;87.80;99572.28;4860464;29;20457;-58
2023/09/04 00:08:40;;;;;;;21.67;13.23;;;;;;;13.83;87.89;99582.94;4859174;29;20046;-59
2023/09/04 00:11:05;;;;;;;15.48;11.18;;;;;;;13.82;87.94;99578.69;4858372;29;20041;-59
2023/09/04 00:13:31;;;;;;;14.43;12.35;;;;;;;13.83;87.80;99576.81;4859790;29;20049;-59
2023/09/04 00:15:57;;;;;;;21.10;14.40;;;;;;;13.80;88.99;99583.47;4860083;29;20500;-60
2023/09/04 00:18:23;;;;;;;20.55;13.82;;;;;;;13.79;90.75;99576.50;4860441;29;20057;-59
2023/09/04 00:20:48;;;;;;;14.75;11.27;;;;;;;13.78;90.46;99568.78;4859067;29;20579;-60
2023/09/04 00:23:14;;;;;;;16.30;11.77;;;;;;;13.78;91.07;99574.91;4860244;29;20202;-59
2023/09/04 00:25:40;;;;;;;13.65;11.23;;;;;;;13.76;91.31;99573.53;4843269;29;20136;-60
2023/09/04 00:28:05;;;;;;;14.50;11.05;;;;;;;13.76;91.47;99577.00;4860203;29;20092;-58
2023/09/04 00:30:31;;;;;;;18.25;11.40;;;;;;;13.73;91.52;99572.19;4859826;29;20516;-59
2023/09/04 00:32:57;;;;;;;19.17;12.70;;;;;;;13.70;91.63;99574.56;4858482;29;20045;-58
2023/09/04 00:35:22;;;;;;;21.98;14.65;;;;;;;13.62;91.88;99578.50;4857907;29;20404;-59
2023/09/04 00:37:48;;;;;;;20.45;14.65;;;;;;;13.53;92.02;99572.00;4859702;29;20049;-59
2023/09/04 00:40:14;;;;;;;20.15;14.20;;;;;;;13.48;92.33;99577.31;4858400;29;20041;-57
2023/09/04 00:42:40;;;;;;;19.27;12.57;;;;;;;13.40;92.28;99568.69;4858182;29;20058;-55
2023/09/04 00:45:11;;;;;;;15.77;11.95;;;;;;;13.40;92.23;99567.91;4858752;29;20064;-60
2023/09/04 00:47:41;;;;;;;16.95;12.45;;;;;;;13.38;92.13;99567.34;4859837;29;20061;-58
2023/09/04 00:50:13;;;;;;;16.80;13.40;;;;;;;13.33;92.00;99569.97;4858523;29;20196;-58
2023/09/04 00:52:39;;;;;;;13.30;10.63;;;;;;;13.31;91.94;99569.41;4842586;29;20062;-57
2023/09/04 00:55:06;;;;;;;11.18;8.55;;;;;;;13.30;92.05;99573.94;4859399;29;20060;-59
2023/09/04 00:57:34;;;;;;;11.38;7.97;;;;;;;13.30;92.34;99573.94;4858152;29;20078;-58
2023/09/04 01:00:05;;;;;;;12.55;8.25;;;;;;;13.29;92.42;99568.84;4858176;29;20041;-59
2023/09/04 01:02:32;;;;;;;13.23;8.95;;;;;;;13.27;92.36;99571.78;4859660;29;20122;-58
2023/09/04 01:04:58;;;;;;;14.93;9.88;;;;;;;13.24;92.75;99571.44;4857488;29;20431;-57
2023/09/04 01:07:24;;;;;;;14.55;9.27;;;;;;;13.21;92.77;99569.25;4858052;29;20045;-59
2023/09/04 01:09:49;;;;;;;10.82;8.40;;;;;;;13.16;93.05;99562.81;4859144;29;20066;-59
2023/09/04 01:12:21;;;;;;;11.65;8.95;;;;;;;13.12;93.02;99563.59;4859284;29;20050;-58
2023/09/04 01:14:47;;;;;;;12.55;8.60;;;;;;;13.10;93.31;99557.72;4842695;29;20074;-58
2023/09/04 01:17:12;;;;;;;14.00;9.80;;;;;;;13.07;93.65;99563.53;4858464;29;20064;-58
2023/09/04 01:19:39;;;;;;;12.85;7.93;;;;;;;13.03;93.52;99563.22;4858153;29;20049;-58
2023/09/04 01:22:06;;;;;;;9.85;7.80;;;;;;;13.03;93.61;99562.41;4842416;29;20140;-58
2023/09/04 01:24:33;;;;;;;10.75;6.57;;;;;;;13.01;93.26;99561.88;4858647;29;20135;-58
2023/09/04 01:27:04;;;;;;;7.90;6.38;;;;;;;13.01;93.28;99567.19;4857628;29;20049;-58
2023/09/04 01:29:42;;;;;;;9.05;6.88;;;;;;;13.01;93.13;99561.88;4858227;29;20052;-58
2023/09/04 01:32:20;;;;;;;9.55;6.93;;;;;;;12.97;93.21;99564.22;4857728;29;20057;-58
2023/09/04 01:34:48;;;;;;;10.93;7.35;;;;;;;12.91;93.86;99566.03;4827195;29;20053;-58
2023/09/04 01:37:14;;;;;;;11.23;6.90;;;;;;;12.88;93.88;99561.19;4857703;29;20088;-58
2023/09/04 01:39:40;;;;;;;12.30;8.05;;;;;;;12.87;94.12;99564.88;4842342;29;20041;-61
2023/09/04 01:42:06;;;;;;;13.70;7.35;;;;;;;12.84;94.27;99559.28;4856983;29;20083;-59
2023/09/04 01:44:33;;;;;;;11.48;7.97;;;;;;;12.78;94.29;99557.59;4858741;29;20085;-59
2023/09/04 01:46:59;;;;;;;12.35;8.40;;;;;;;12.76;94.63;99568.47;4860306;29;20137;-58
2023/09/04 01:49:24;;;;;;;12.60;8.63;;;;;;;12.72;95.08;99567.38;4865148;29;20042;-58
2023/09/04 01:51:51;;;;;;;10.70;8.27;;;;;;;12.69;94.95;99568.66;4864782;29;20049;-59
2023/09/04 01:54:17;;;;;;;11.23;8.48;;;;;;;12.66;95.28;99573.69;4863670;29;20512;-58
2023/09/04 01:56:43;;;;;;;10.48;8.52;;;;;;;12.62;95.45;99570.72;4863414;29;20057;-59
2023/09/04 01:59:09;;;;;;;11.60;7.63;;;;;;;12.60;95.81;99569.34;4863582;29;20061;-59
2023/09/04 02:01:35;;;;;;;18.05;14.32;;;;;;;12.58;96.17;99566.13;4863483;29;20091;-58
2023/09/04 02:04:01;;;;;;;18.83;14.45;;;;;;;12.60;96.55;99569.34;4864268;29;20455;-58
2023/09/04 02:06:29;;;;;;;17.63;14.43;;;;;;;12.62;96.61;99569.91;4863492;29;20049;-60
2023/09/04 02:08:55;;;;;;;18.40;13.27;;;;;;;12.62;96.88;99572.56;4863596;29;20049;-58
2023/09/04 02:11:21;;;;;;;13.10;11.45;;;;;;;12.65;96.77;99577.41;4864791;29;20061;-58
2023/09/04 02:13:49;;;;;;;13.73;9.45;;;;;;;12.64;96.40;99579.22;4863331;29;20057;-56
2023/09/04 02:16:15;;;;;;;12.95;8.38;;;;;;;12.65;96.07;99585.38;4863568;29;20041;-59
2023/09/04 02:18:41;;;;;;;10.98;8.30;;;;;;;12.66;95.96;99579.78;4848549;29;20129;-58
2023/09/04 02:21:07;;;;;;;13.15;10.40;;;;;;;12.68;95.62;99588.34;4863788;29;20037;-59
2023/09/04 02:23:33;;;;;;;11.55;8.48;;;;;;;12.71;95.45;99590.50;4864127;29;20478;-58
2023/09/04 02:25:59;;;;;;;11.25;8.20;;;;;;;12.75;95.64;99593.47;4863709;29;20045;-59
2023/09/04 02:28:25;;;;;;;13.93;8.02;;;;;;;12.79;95.44;99605.22;4865154;29;20056;-58
2023/09/04 02:30:51;;;;;;;12.23;7.93;;;;;;;12.83;95.27;99600.22;4863484;29;20056;-59
2023/09/04 02:33:17;;;;;;;14.93;8.20;;;;;;;12.86;95.37;99608.53;4865244;29;20057;-58
2023/09/04 02:35:42;;;;;;;13.65;7.70;;;;;;;12.87;95.39;99604.00;4864827;29;20098;-59
2023/09/04 02:38:08;;;;;;;12.80;8.95;;;;;;;12.88;95.12;99606.44;4833091;29;20105;-59
2023/09/04 02:40:34;;;;;;;13.15;7.95;;;;;;;12.87;94.60;99606.66;4863603;29;20041;-56
2023/09/04 02:43:00;;;;;;;10.77;8.52;;;;;;;12.86;94.56;99605.06;4864919;29;20084;-58
2023/09/04 02:45:26;;;;;;;9.52;7.60;;;;;;;12.89;94.36;99600.03;4864575;29;20041;-59
2023/09/04 02:47:52;;;;;;;11.43;7.72;;;;;;;12.98;94.54;99603.06;4865086;29;20068;-57
2023/09/04 02:50:18;;;;;;;11.75;7.90;;;;;;;13.10;93.81;99611.72;4863970;29;20037;-59
2023/09/04 02:52:44;;;;;;;16.13;10.07;;;;;;;13.21;93.06;99610.00;4848087;29;20515;-58
2023/09/04 02:55:09;;;;;;;27.67;18.00;;;;;;;13.30;92.10;99621.06;4864910;29;20048;-60
2023/09/04 02:57:35;;;;;;;35.03;22.63;;;;;;;13.39;91.30;99614.22;4878707;29;20088;-57
2023/09/04 03:00:05;;;;;;;32.47;19.33;;;;;;;13.50;90.49;99612.44;4860986;29;20092;-59
2023/09/04 03:02:32;;;;;;;26.08;16.85;;;;;;;13.59;89.75;99621.63;4861823;29;20053;-59
2023/09/04 03:04:58;;;;;;;28.08;16.02;;;;;;;13.66;89.23;99624.09;4861789;29;20424;-58
2023/09/04 03:07:27;;;;;;;25.95;13.63;;;;;;;13.70;88.23;99620.66;4860369;29;20050;-59
2023/09/04 03:09:57;;;;;;;21.25;14.35;;;;;;;13.79;87.68;99621.78;4860357;29;20049;-56
2023/09/04 03:12:27;;;;;;;23.02;14.50;;;;;;;13.91;86.99;99629.63;4844799;29;20495;-58
2023/09/04 03:14:56;;;;;;;26.63;14.95;;;;;;;14.06;85.83;99623.66;4860273;29;20136;-57
2023/09/04 03:17:23;;;;;;;28.90;15.88;;;;;;;14.18;85.17;99626.94;4861549;29;20105;-58
2023/09/04 03:19:53;;;;;;;31.65;14.88;;;;;;;14.36;84.60;99632.94;4844952;29;20102;-58
2023/09/04 03:22:20;;;;;;;23.95;14.30;;;;;;;14.52;83.16;99632.78;4874665;29;20050;-58
2023/09/04 03:24:47;;;;;;;22.15;12.20;;;;;;;14.69;82.41;99643.31;4860299;29;20064;-57
2023/09/04 03:27:14;;;;;;;17.40;12.15;;;;;;;14.88;81.48;99640.19;4860057;29;20049;-57
2023/09/04 03:29:40;;;;;;;20.27;10.88;;;;;;;15.03;79.75;99647.47;4861271;29;20049;-60
2023/09/04 03:32:07;;;;;;;16.38;8.77;;;;;;;15.12;78.84;99651.28;4859936;29;20071;-58
2023/09/04 03:34:33;;;;;;;13.95;9.00;;;;;;;15.21;78.37;99655.06;4861136;29;20045;-59
2023/09/04 03:36:59;;;;;;;13.27;9.65;;;;;;;15.28;78.09;99650.25;4861057;29;20386;-58
2023/09/04 03:39:25;;;;;;;13.48;8.77;;;;;;;15.47;77.27;99650.59;4858862;29;20049;-59
2023/09/04 03:41:51;;;;;;;15.40;9.35;;;;;;;15.57;76.23;99652.50;4861034;29;20945;-59
2023/09/04 03:44:17;;;;;;;14.85;8.77;;;;;;;15.66;76.13;99659.72;4844217;29;20145;-58
2023/09/04 03:46:43;;;;;;;13.68;9.18;;;;;;;15.79;75.25;99660.31;4859429;29;20053;-58
2023/09/04 03:49:09;;;;;;;15.20;8.73;;;;;;;15.79;75.16;99655.75;4859944;29;20058;-61
2023/09/04 03:51:34;;;;;;;13.30;8.95;;;;;;;15.90;74.71;99653.91;4859783;29;20045;-59
2023/09/04 03:54:03;;;;;;;16.92;9.40;;;;;;;16.00;74.07;99653.09;4860881;29;20053;-57
2023/09/04 03:56:29;;;;;;;11.55;8.43;;;;;;;16.10;73.69;99647.78;4859486;29;20057;-59
2023/09/04 03:58:56;;;;;;;12.00;8.70;;;;;;;16.05;73.63;99650.44;4859530;29;20041;-56
2023/09/04 04:01:25;;;;;;;14.65;9.35;;;;;;;16.24;72.65;99656.09;4860489;29;20094;-59
2023/09/04 04:03:51;;;;;;;10.70;9.05;;;;;;;16.37;72.59;99660.88;4844270;29;20397;-59
2023/09/04 04:06:17;;;;;;;11.85;8.10;;;;;;;16.49;71.93;99665.94;4859308;29;20057;-57
2023/09/04 04:08:45;;;;;;;12.82;8.68;;;;;;;16.60;71.45;99650.69;4843787;29;20045;-57
2023/09/04 04:11:10;;;;;;;11.73;8.50;;;;;;;16.73;70.62;99663.50;4860275;29;20531;-59
2023/09/04 04:13:36;;;;;;;12.77;8.15;;;;;;;16.80;70.24;99656.03;4859268;29;20041;-60
2023/09/04 04:16:02;;;;;;;9.57;7.30;;;;;;;16.78;70.30;99658.16;4843611;29;20469;-59
2023/09/04 04:18:29;;;;;;;12.68;8.95;;;;;;;16.81;70.08;99652.28;4860699;29;20077;-57
2023/09/04 04:20:58;;;;;;;15.88;9.70;;;;;;;16.88;70.00;99660.81;4843622;29;20491;-58
2023/09/04 04:23:23;;;;;;;15.82;9.40;;;;;;;16.89;69.60;99665.09;4858505;29;20060;-59
2023/09/04 04:25:50;;;;;;;12.35;9.68;;;;;;;16.95;69.74;99658.66;4860079;29;20473;-59
2023/09/04 04:28:18;;;;;;;17.20;10.85;;;;;;;17.01;70.16;99654.88;4860298;29;20120;-56
2023/09/04 04:30:44;;;;;;;15.13;9.77;;;;;;;16.97;69.63;99653.00;4858870;29;20542;-57
2023/09/04 04:33:10;;;;;;;13.35;8.85;;;;;;;16.98;70.03;99658.13;4828432;29;20081;-59
2023/09/04 04:35:36;;;;;;;10.52;7.88;;;;;;;16.89;70.29;99657.06;4857925;29;20409;-58
2023/09/04 04:38:02;;;;;;;14.95;9.35;;;;;;;16.94;70.47;99659.75;4857949;29;20045;-59
2023/09/04 04:40:29;;;;;;;17.77;12.75;;;;;;;16.99;70.28;99670.41;4841821;29;20460;-58
2023/09/04 04:42:57;;;;;;;18.10;11.20;;;;;;;16.94;70.63;99664.28;4857531;29;20078;-59
2023/09/04 04:45:23;;;;;;;16.65;10.82;;;;;;;16.98;71.25;99665.34;4860003;29;20057;-59
2023/09/04 04:47:51;;;;;;;15.13;11.02;;;;;;;17.00;70.83;99672.03;4858222;29;20033;-57
2023/09/04 04:50:17;;;;;;;9.35;8.07;;;;;;;16.90;71.34;99663.22;4859639;29;20049;-58
2023/09/04 04:52:43;;;;;;;14.80;10.30;;;;;;;16.85;71.66;99671.25;4859655;29;20050;-58
2023/09/04 04:55:11;;;;;;;16.60;12.18;;;;;;;16.79;71.91;99675.81;4857782;29;20482;-58
2023/09/04 04:57:37;;;;;;;18.08;10.13;;;;;;;16.82;72.32;99669.94;4826718;29;20045;-60
2023/09/04 05:00:07;;;;;;;15.23;8.50;;;;;;;16.75;73.54;99672.06;4841965;29;20140;-61
2023/09/04 05:02:34;;;;;;;13.27;7.60;;;;;;;16.74;73.60;99670.47;4858099;29;20058;-59
2023/09/04 05:05:00;;;;;;;14.20;7.68;;;;;;;16.73;73.87;99675.00;4859654;29;20064;-56
2023/09/04 05:07:27;;;;;;;12.10;7.50;;;;;;;16.71;73.81;99676.38;4840695;29;20042;-57
2023/09/04 05:09:53;;;;;;;11.25;7.60;;;;;;;16.63;74.45;99667.00;4840019;29;20050;-57
2023/09/04 05:12:20;;;;;;;12.20;7.30;;;;;;;16.67;75.32;99677.97;4855906;29;20119;-57
2023/09/04 05:14:46;;;;;;;12.20;7.10;;;;;;;16.68;75.19;99674.25;4841864;29;20128;-55
2023/09/04 05:17:12;;;;;;;12.32;7.40;;;;;;;16.68;75.17;99669.69;4859845;29;20129;-57
2023/09/04 05:19:38;;;;;;;11.55;6.68;;;;;;;16.72;75.34;99669.94;4856801;29;20049;-57
2023/09/04 05:22:04;;;;;;;11.93;6.90;;;;;;;16.69;75.54;99675.81;4857929;29;20045;-56
2023/09/04 05:24:30;;;;;;;9.95;6.45;;;;;;;16.74;75.58;99675.81;4856745;29;20055;-55
2023/09/04 05:26:55;;;;;;;9.68;6.10;;;;;;;16.73;75.82;99677.69;4857504;29;20129;-58
2023/09/04 05:29:21;;;;;;;11.20;6.63;;;;;;;16.77;75.95;99676.13;4856584;29;20406;-58
2023/09/04 05:31:51;;;;;;;8.30;6.07;;;;;;;16.80;75.79;99677.44;4857772;29;20041;-58
2023/09/04 05:34:17;;;;;;;11.32;6.22;;;;;;;16.79;76.04;99675.81;4859222;29;20570;-59
2023/09/04 05:36:42;;;;;;;8.73;6.05;;;;;;;16.81;75.17;99676.38;4857568;29;20144;-57
2023/09/04 05:39:09;;;;;;;9.88;6.28;;;;;;;16.75;76.05;99675.53;4859097;29;20042;-58
2023/09/04 05:41:36;;;;;;;8.82;5.97;;;;;;;16.81;76.48;99676.38;4858689;29;20045;-56
2023/09/04 05:44:02;;;;;;;8.77;5.60;;;;;;;16.87;77.28;99663.78;4856519;29;20041;-59
2023/09/04 05:46:29;;;;;;;8.95;5.93;;;;;;;16.95;76.60;99674.72;4857868;29;20097;-58
2023/09/04 05:48:54;;;;;;;9.80;5.57;;;;;;;17.00;76.10;99676.56;4859183;29;20047;-56
2023/09/04 05:51:20;;;;;;;7.68;5.90;;;;;;;17.05;75.59;99668.53;4859736;29;20045;-56
2023/09/04 05:53:46;;;;;;;7.45;5.70;;;;;;;17.06;75.59;99666.66;4857497;29;20504;-57
2023/09/04 05:56:11;;;;;;;11.05;5.30;;;;;;;17.12;75.77;99668.22;4859000;29;20050;-58
2023/09/04 05:58:50;;;;;;;7.40;5.60;;;;;;;17.16;75.26;99669.31;4858745;29;20095;-58
2023/09/04 06:01:17;;;;;;;10.65;4.63;;;;;;;17.16;74.76;99677.34;4858871;29;20091;-55
2023/09/04 06:03:44;;;;;;;8.48;5.35;;;;;;;17.19;74.40;99669.56;4857233;29;20064;-56
2023/09/04 06:06:10;;;;;;;5.90;4.43;;;;;;;17.21;74.46;99670.09;4857244;29;20144;-59
2023/09/04 06:08:37;;;;;;;5.53;4.32;;;;;;;17.27;74.66;99670.06;4856752;29;20045;-57
2023/09/04 06:11:04;;;;;;;6.15;4.40;;;;;;;17.35;74.38;99667.59;4856995;29;20054;-57
2023/09/04 06:13:30;;;;;;;6.28;4.25;;;;;;;17.33;73.71;99668.97;4858941;29;20045;-57
2023/09/04 06:15:55;;;;;;;6.88;4.28;;;;;;;17.43;73.75;99674.28;4858583;29;20068;-58
2023/09/04 06:18:22;;;;;;;8.13;3.88;;;;;;;17.46;73.06;99682.56;4858763;29;20045;-57
2023/09/04 06:20:49;;;;;;;4.03;3.60;;;;;;;17.54;72.59;99673.16;4857461;29;20539;-57
2023/09/04 06:23:15;;;;;;;4.05;3.65;;;;;;;17.57;71.52;99671.81;4858290;29;20152;-56
2023/09/04 06:25:42;;;;;;;3.78;3.33;;;;;;;17.63;71.04;99671.50;4857003;29;20140;-59
2023/09/04 06:28:10;;;;;;;8.00;3.70;;;;;;;17.69;71.69;99677.63;4858417;29;20145;-56
2023/09/04 06:30:36;;;;;;;5.20;3.67;;;;;;;17.73;71.15;99680.53;4858518;29;20432;-57
2023/09/04 06:33:02;;;;;;;7.15;3.83;;;;;;;17.77;70.00;99679.72;4858618;29;20045;-60
2023/09/04 06:35:31;;;;;;;5.18;3.63;;;;;;;17.80;70.73;99683.78;4860882;29;20052;-60
2023/09/04 06:37:57;;;;;;;6.07;3.90;;;;;;;17.82;70.24;99682.38;4861696;29;20041;-58
2023/09/04 06:40:23;;;;;;;7.50;4.05;;;;;;;17.91;70.41;99685.28;4861548;29;20049;-57
2023/09/04 06:42:49;;;;;;;8.18;3.85;;;;;;;18.01;70.99;99682.53;4861744;29;20042;-56
2023/09/04 06:45:15;;;;;;;5.18;3.70;;;;;;;18.08;69.59;99685.69;4861456;29;20292;-56
2023/09/04 06:47:41;;;;;;;5.20;3.90;;;;;;;18.14;70.30;99689.94;4861583;29;20057;-56
2023/09/04 06:50:08;;;;;;;4.30;3.65;;;;;;;18.17;68.75;99694.75;4861830;29;20053;-56
2023/09/04 06:52:35;;;;;;;5.07;3.85;;;;;;;18.20;68.63;99693.41;4829739;29;20144;-57
2023/09/04 06:55:01;;;;;;;6.28;4.28;;;;;;;18.21;69.12;99694.22;4861006;29;20132;-57
2023/09/04 06:57:28;;;;;;;4.15;3.50;;;;;;;18.25;68.63;99689.88;4861673;29;20045;-55
2023/09/04 06:59:56;;;;;;;6.40;4.30;;;;;;;18.33;68.20;99683.91;4861372;29;20424;-56
2023/09/04 07:02:21;;;;;;;4.57;3.50;;;;;;;18.42;67.76;99692.16;4861607;29;20412;-59
2023/09/04 07:04:48;;;;;;;7.57;3.75;;;;;;;18.51;67.06;99690.47;4861162;29;20110;-54
2023/09/04 07:07:14;;;;;;;5.90;3.15;;;;;;;18.51;66.88;99688.59;4844835;29;20053;-56
2023/09/04 07:09:40;;;;;;;4.22;3.45;;;;;;;18.57;66.90;99686.66;4860186;29;20049;-57
2023/09/04 07:12:06;;;;;;;3.83;3.00;;;;;;;18.61;66.11;99688.47;4861826;29;20537;-52
2023/09/04 07:14:32;;;;;;;4.35;3.20;;;;;;;18.58;66.02;99689.03;4844594;29;20037;-58
2023/09/04 07:16:58;;;;;;;3.50;2.63;;;;;;;18.65;64.81;99691.41;4861367;29;20041;-58
2023/09/04 07:19:24;;;;;;;4.25;3.25;;;;;;;18.77;65.37;99707.19;4861061;29;20101;-58
2023/09/04 07:21:50;;;;;;;3.92;3.20;;;;;;;18.83;65.08;99703.34;4861167;29;20037;-58
2023/09/04 07:24:16;;;;;;;5.57;2.85;;;;;;;18.82;64.96;99702.56;4842412;29;20601;-55
2023/09/04 07:26:42;;;;;;;3.95;2.92;;;;;;;18.92;64.08;99701.66;4844458;29;20045;-57
2023/09/04 07:29:08;;;;;;;5.55;3.15;;;;;;;18.97;63.47;99703.47;4861212;29;20090;-59
2023/09/04 07:31:33;;;;;;;5.35;3.05;;;;;;;19.07;63.29;99700.69;4861231;29;20542;-54
2023/09/04 07:34:01;;;;;;;3.83;2.90;;;;;;;19.12;62.90;99703.31;4860602;29;20093;-54
2023/09/04 07:36:27;;;;;;;4.10;2.92;;;;;;;19.17;62.96;99707.81;4861045;29;20042;-56
2023/09/04 07:38:53;;;;;;;3.05;2.42;;;;;;;19.15;62.30;99708.13;4860630;29;20047;-60
2023/09/04 07:41:18;;;;;;;3.13;2.60;;;;;;;19.15;61.46;99705.44;4859611;29;20424;-60
2023/09/04 07:43:44;;;;;;;3.03;2.72;;;;;;;19.19;62.49;99708.34;4856908;29;20045;-59
2023/09/04 07:46:10;;;;;;;3.95;2.97;;;;;;;19.23;62.05;99710.16;4858874;29;20053;-60
2023/09/04 07:48:35;;;;;;;3.53;2.80;;;;;;;19.31;61.92;99705.25;4859796;29;20053;-58
2023/09/04 07:51:04;;;;;;;3.72;3.10;;;;;;;19.36;61.62;99710.56;4844240;29;20052;-60
2023/09/04 07:53:31;;;;;;;3.70;2.80;;;;;;;19.40;60.78;99706.22;4860292;29;20093;-58
2023/09/04 07:55:56;;;;;;;3.67;2.67;;;;;;;19.40;60.61;99711.59;4859079;29;20054;-60
2023/09/04 07:58:22;;;;;;;2.42;2.22;;;;;;;19.46;59.25;99705.06;4859463;29;20095;-60
2023/09/04 08:00:49;;;;;;;3.20;2.47;;;;;;;19.50;59.57;99709.56;4859005;29;20105;-60
2023/09/04 08:03:16;;;;;;;3.72;2.63;;;;;;;19.56;60.25;99715.69;4860720;29;20041;-57
2023/09/04 08:05:42;;;;;;;3.75;2.72;;;;;;;19.60;59.46;99710.53;4843621;29;20049;-59
2023/09/04 08:08:10;;;;;;;2.72;2.53;;;;;;;19.63;59.51;99707.25;4860758;29;20052;-60
2023/09/04 08:10:40;;;;;;;3.80;2.40;;;;;;;19.68;58.89;99716.09;4860092;29;20057;-58
2023/09/04 08:13:15;;;;;;;;;;;;;;;19.73;58.88;99715.22;4859616;29;20049;-57
2023/09/04 08:15:41;;;;;;;5.97;2.67;;;;;;;19.77;59.89;99708.19;4858464;29;19928;-59
2023/09/04 08:18:07;;;;;;;2.83;2.60;;;;;;;19.85;59.16;99712.09;4857641;29;20078;-59
2023/09/04 08:20:34;;;;;;;4.72;2.67;;;;;;;19.93;58.84;99714.94;4858888;29;20058;-60
2023/09/04 08:23:00;;;;;;;4.53;2.72;;;;;;;20.11;58.65;99723.28;4859525;29;20096;-58
2023/09/04 08:25:26;;;;;;;5.10;2.67;;;;;;;20.23;58.11;99717.44;4859560;29;20149;-58
2023/09/04 08:27:51;;;;;;;4.90;2.70;;;;;;;20.30;58.00;99725.97;4858633;29;20076;-57
2023/09/04 08:30:17;;;;;;;4.07;2.58;;;;;;;20.39;56.16;99722.31;4859858;29;20512;-58
2023/09/04 08:32:44;;;;;;;3.15;2.50;;;;;;;20.47;55.91;99723.53;4858537;29;20145;-58
2023/09/04 08:35:11;;;;;;;4.55;2.58;;;;;;;20.59;55.32;99715.81;4859424;29;20531;-59
2023/09/04 08:37:37;;;;;;;4.35;2.67;;;;;;;20.78;55.58;99712.25;4860158;29;20045;-59
2023/09/04 08:40:03;;;;;;;3.97;2.50;;;;;;;20.96;54.88;99713.28;4859759;29;20053;-58
2023/09/04 08:42:29;;;;;;;2.38;2.13;;;;;;;21.20;53.53;99716.56;4858385;29;20424;-59
2023/09/04 08:44:58;;;;;;;2.60;2.33;;;;;;;21.33;53.01;99720.38;4859857;29;20057;-60
2023/09/04 08:47:25;;;;;;;3.03;2.08;;;;;;;21.44;52.16;99724.50;4857987;29;20128;-59
2023/09/04 08:49:55;;;;;;;2.65;2.20;;;;;;;21.46;52.00;99716.09;4859476;29;20061;-58
2023/09/04 08:52:20;;;;;;;3.70;2.15;;;;;;;21.71;51.35;99717.47;4857740;29;20048;-58
2023/09/04 08:54:47;;;;;;;4.43;2.42;;;;;;;21.86;51.03;99719.81;4858181;29;20045;-59
2023/09/04 08:57:13;;;;;;;3.17;2.50;;;;;;;21.96;50.74;99710.69;4841810;29;20074;-57
2023/09/04 08:59:39;;;;;;;4.15;2.90;;;;;;;21.98;50.43;99717.38;4859611;29;20045;-59
2023/09/04 09:02:05;;;;;;;4.43;2.20;;;;;;;22.06;49.87;99723.97;4857462;29;20435;-60
2023/09/04 09:04:32;;;;;;;3.60;2.55;;;;;;;22.18;49.59;99721.53;4857260;29;20056;-60
2023/09/04 09:06:58;;;;;;;5.70;2.70;;;;;;;22.25;48.90;99718.41;4858868;29;20484;-56
2023/09/04 09:09:24;;;;;;;3.35;2.33;;;;;;;22.34;47.89;99719.25;4827664;29;20139;-60
2023/09/04 09:11:53;;;;;;;4.63;2.65;;;;;;;22.40;47.94;99719.94;4857829;29;20048;-57
2023/09/04 09:14:21;;;;;;;5.53;2.65;;;;;;;22.32;47.70;99721.47;4858129;29;20084;-59
2023/09/04 09:16:46;;;;;;;3.60;2.28;;;;;;;22.38;47.65;99722.97;4859133;29;20053;-57
2023/09/04 09:19:14;;;;;;;3.20;2.35;;;;;;;22.36;47.59;99724.38;4857928;29;20046;-59
2023/09/04 09:21:40;;;;;;;4.05;1.98;;;;;;;22.41;46.20;99719.66;4842182;29;20077;-58
2023/09/04 09:24:09;;;;;;;2.47;2.10;;;;;;;22.49;46.41;99720.78;4859331;29;20529;-59
2023/09/04 09:26:37;;;;;;;3.63;2.40;;;;;;;22.59;46.28;99720.53;4858646;29;20503;-58
2023/09/04 09:29:03;;;;;;;2.75;2.50;;;;;;;22.66;45.70;99725.50;4858442;29;20137;-58
2023/09/04 09:31:30;;;;;;;3.13;2.38;;;;;;;22.76;46.04;99724.44;4811792;29;20048;-58
2023/09/04 09:33:56;;;;;;;3.75;2.50;;;;;;;22.84;46.40;99727.19;4859341;29;20053;-58
2023/09/04 09:36:21;;;;;;;4.53;3.13;;;;;;;22.81;47.32;99730.50;4858879;29;20535;-58
2023/09/04 09:38:47;;;;;;;4.35;2.90;;;;;;;22.77;47.67;99724.13;4842350;29;20045;-60
2023/09/04 09:41:13;;;;;;;4.78;3.15;;;;;;;22.88;47.62;99728.16;4856510;29;20054;-59
2023/09/04 09:43:41;;;;;;;5.32;2.40;;;;;;;22.85;47.37;99736.09;4857794;29;20105;-59
2023/09/04 09:46:08;;;;;;;5.90;2.75;;;;;;;22.77;46.98;99726.03;4857194;29;20530;-59
2023/09/04 09:48:36;;;;;;;2.65;2.45;;;;;;;22.82;46.97;99736.69;4857705;29;20053;-59
2023/09/04 09:51:02;;;;;;;4.82;2.50;;;;;;;22.94;46.71;99739.63;4858474;29;20056;-59
2023/09/04 09:53:43;;;;;;;3.28;2.30;;;;;;;22.89;46.25;99737.06;4841878;29;20104;-59
2023/09/04 09:56:09;;;;;;;2.63;2.22;;;;;;;22.90;45.06;99742.16;4858933;29;20046;-59
2023/09/04 09:58:35;;;;;;;3.88;2.58;;;;;;;22.75;45.50;99742.56;4857922;29;20420;-58
2023/09/04 10:01:01;;;;;;;3.28;2.40;;;;;;;22.72;45.92;99743.19;4814643;29;20045;-57
2023/09/04 10:03:27;;;;;;;5.25;2.63;;;;;;;22.71;45.12;99740.78;4856336;29;20102;-57
2023/09/04 10:05:54;;;;;;;3.72;2.50;;;;;;;22.79;45.90;99743.53;4857905;29;20055;-59
2023/09/04 10:08:20;;;;;;;6.03;2.97;;;;;;;22.86;45.77;99741.19;4843099;29;20170;-57
2023/09/04 10:10:47;;;;;;;5.15;3.00;;;;;;;22.88;45.11;99741.69;4845376;29;20042;-59
2023/09/04 10:13:17;;;;;;;3.28;2.67;;;;;;;22.89;45.37;99745.97;4861116;29;20057;-59
2023/09/04 10:15:46;;;;;;;7.73;2.87;;;;;;;22.90;44.35;99742.16;4844845;29;20093;-58
2023/09/04 10:18:24;;;;;;;4.38;2.53;;;;;;;22.95;44.34;99735.06;4861346;29;20044;-59
2023/09/04 10:20:51;;;;;;;7.07;2.78;;;;;;;22.98;42.88;99739.84;4861841;29;20045;-59
2023/09/04 10:23:19;;;;;;;3.00;2.20;;;;;;;23.05;42.34;99732.88;4860652;29;20056;-59
2023/09/04 10:25:53;;;;;;;4.35;2.35;;;;;;;23.01;42.98;99736.53;4861804;29;20049;-59
2023/09/04 10:28:24;;;;;;;6.35;2.80;;;;;;;23.01;43.33;99744.63;4844862;29;20308;-59
2023/09/04 10:31:30;;;;;;;3.03;2.40;;;;;;;23.00;42.45;99740.31;4848145;29;20527;-55
2023/09/04 10:34:02;;;;;;;3.83;2.47;;;;;;;23.04;43.49;99742.09;4834881;29;20098;-59
2023/09/04 10:36:30;;;;;;;3.13;2.40;;;;;;;23.09;44.09;99744.66;4862096;29;20052;-58
2023/09/04 10:38:59;;;;;;;5.13;2.67;;;;;;;23.20;45.01;99739.75;4859982;29;20498;-59
2023/09/04 10:41:26;;;;;;;6.57;2.92;;;;;;;23.20;45.24;99750.56;4860738;29;20118;-59
2023/09/04 10:43:51;;;;;;;3.58;3.00;;;;;;;23.21;45.38;99748.69;4861816;29;20049;-59
2023/09/04 10:46:17;;;;;;;3.67;2.40;;;;;;;23.05;44.54;99746.38;4860383;29;20045;-59
2023/09/04 10:48:49;;;;;;;6.55;2.65;;;;;;;22.94;44.10;99749.63;4860372;29;20041;-58
2023/09/04 10:51:28;;;;;;;3.40;2.80;;;;;;;22.85;45.52;99755.81;4860433;29;20057;-59
2023/09/04 10:53:54;;;;;;;3.00;2.70;;;;;;;22.87;45.83;99755.50;4861903;29;20057;-58
2023/09/04 10:56:20;;;;;;;4.80;2.50;;;;;;;22.92;45.04;99751.88;4861860;29;20045;-57
2023/09/04 10:59:05;;;;;;;5.57;3.20;;;;;;;23.00;45.30;99748.44;4859473;29;20503;-58
2023/09/04 11:01:38;;;;;;;3.53;2.60;;;;;;;23.07;45.19;99746.09;4859920;29;20045;-59
2023/09/04 11:04:08;;;;;;;5.18;2.70;;;;;;;23.00;45.37;99729.50;4861205;29;20108;-57
2023/09/04 11:06:40;;;;;;;;;;;;;;;23.07;45.26;99754.19;4860625;29;20053;-58
2023/09/04 11:09:11;;;;;;;3.75;2.65;;;;;;;22.95;45.68;99752.06;4861186;29;19974;-59
2023/09/04 11:11:38;;;;;;;4.28;2.60;;;;;;;22.96;46.36;99755.56;4861600;29;20046;-55
2023/09/04 11:14:09;;;;;;;4.53;3.00;;;;;;;22.92;45.63;99749.97;4860975;29;20049;-58
2023/09/04 11:16:48;;;;;;;5.82;2.50;;;;;;;22.90;45.33;99752.16;4861200;29;20104;-59
2023/09/04 11:19:15;;;;;;;4.93;2.60;;;;;;;22.93;45.66;99738.03;4860615;29;20049;-59
2023/09/04 11:21:43;;;;;;;4.60;2.72;;;;;;;22.97;45.96;99749.03;4860732;29;20041;-59
2023/09/04 11:24:09;;;;;;;4.10;2.45;;;;;;;22.91;45.64;99753.75;4860535;29;20076;-57
2023/09/04 11:26:35;;;;;;;5.15;2.53;;;;;;;22.97;44.66;99749.03;4862259;29;20045;-57
2023/09/04 11:29:03;;;;;;;4.07;2.45;;;;;;;23.00;44.19;99734.91;4860932;29;20078;-58